Weersoverzicht van METAR-stations binnen 150 km

EHRD - Rotterdam Airport
Afstand tot weerstation: ZO 28 km
Update: 12-12-2019 22:25
Lichte motregen, Zwaar bewolkt
Lichte motregen, Zwaar bewolkt
 Wind van ZZO
Wind: ZZO 33 km/h
Temperatuur: 5°C
Gevoelstemperatuur: 0°C
Dauwpunt: 3°C
Luchtvochtigheid: 87%
Luchtdruk: 981 hPa
Overzicht: Lichte motregen
Bewolking: Zwaar bewolkt
Zicht: 10 km
Details Bewolking: Enkele wolken 457 m
Overwegend bewolkt 488 m
Zwaar bewolkt 579 m
2019/12/12 21:25 EHRD 122125Z AUTO 15018KT 110V190 9999 -DZ FEW015CB BKN016 OVC019 05/03 Q0981 REDZ NOSIG
EHSC - Goeree Le Sea (Platform ter hoogte van Zeeland)
Afstand tot weerstation: WZW 36 km
Update: 12-12-2019 22:25
Lichte regen
Lichte regen
 Wind van Z
Wind: Z 67 km/h
Temperatuur: 6°C
Gevoelstemperatuur: -1°C
Dauwpunt: 4°C
Luchtvochtigheid: 87%
Luchtdruk: 980 hPa
Overzicht: Lichte regen
Zicht: 6 km
2019/12/12 21:25 EHSC 122125Z AUTO 17036KT 6000 -RA ///////// 06/04 Q0980 RERA REDZ W08/H16
 
EHAM - A'dam Schiphol
Afstand tot weerstation: ONO 51 km
Update: 12-12-2019 22:25
Zwaar bewolkt
Zwaar bewolkt
 Wind van ZZO
Wind: ZZO 37 km/h
Temperatuur: 5°C
Gevoelstemperatuur: -1°C
Dauwpunt: 2°C
Luchtvochtigheid: 81%
Luchtdruk: 982 hPa
Bewolking: Zwaar bewolkt
Zicht: 10 km
Details Bewolking: Enkele wolken 457 m
Zwaar bewolkt 579 m
2019/12/12 21:25 EHAM 122125Z 15020KT 120V180 9999 FEW015 OVC019 05/02 Q0982 TEMPO 7000 -DZRA
EHSA - Euro Platform (Ter hoogte van Zeeland)
Afstand tot weerstation: W 58 km
Update: 12-12-2019 22:25
Lichte regen, Motregen
Lichte regen, Motregen
 Wind van ZZO
Wind: ZZO 74 km/h
Temperatuur: 6°C
Gevoelstemperatuur: -1°C
Dauwpunt: 5°C
Luchtvochtigheid: 93%
Luchtdruk: 977 hPa
Overzicht: Lichte regen, Motregen
Zicht: 4 km
2019/12/12 21:25 EHSA 122125Z AUTO 15040KT 3700 -RADZ ///////// 06/05 Q0977 W08/H26
 
EHPG - P11-B Sea (Platform ter hoogte van Zuid Holland)
Afstand tot weerstation: NW 60 km
Update: 12-12-2019 22:25

 
2019/12/12 21:25 EHPG 122125Z AUTO ///45KT 6000 -RA FEW009 SCT010 BKN012 07/05 Q0975 RERA REDZ
EHWO - Vliegveld Woensdrecht
Afstand tot weerstation: ZZO 65 km
Update: 12-12-2019 22:31
Lichte regen, Zwaar bewolkt
Lichte regen, Zwaar bewolkt
 Wind van Z
Wind: Z 22 km/h, Windvlagen: 41 km/h
Temperatuur: 5°C
Gevoelstemperatuur: 1°C
Dauwpunt: 3°C
Luchtvochtigheid: 87%
Luchtdruk: 982 hPa
Overzicht: Lichte regen
Bewolking: Zwaar bewolkt
Zicht: 10 km
Details Bewolking: Enkele wolken 427 m
Zwaar bewolkt 518 m
2019/12/12 21:31 EHWO 122131Z AUTO 17012G22KT 110V230 9999 -RA FEW014 OVC017 05/03 Q0982 WHT
 
EHGR - Vliegveld Gilze-Rijen
Afstand tot weerstation: ZO 79 km
Update: 12-12-2019 22:28
Lichte regen, Overwegend bewolkt
Lichte regen, Overwegend bewolkt
 Wind van ZZO
Wind: ZZO 31 km/h
Temperatuur: 5°C
Gevoelstemperatuur: 0°C
Dauwpunt: 2°C
Luchtvochtigheid: 81%
Luchtdruk: 983 hPa
Overzicht: Lichte regen
Bewolking: Overwegend bewolkt
Zicht: 10 km
Details Bewolking: Enkele wolken 610 m
Gedeeltelijk bewolkt 1158 m
Overwegend bewolkt 1554 m
2019/12/12 21:28 EHGR 122128Z AUTO 16017KT 130V200 9999 -RA FEW020 SCT038 BKN051 05/02 Q0983 BLU 16015G25KT 9999 SCT018 BKN022 BECMG FEW012 BKN016
EHQE - Hoorn-A Sea (Platform ter hoogte van Noord Holland)
Afstand tot weerstation: N 103 km
Update: 12-12-2019 22:25
Zwaar bewolkt
Zwaar bewolkt
 Wind van ZO
Wind: ZO 70 km/h
Temperatuur: 6°C
Gevoelstemperatuur: -1°C
Dauwpunt: 4°C
Luchtvochtigheid: 87%
Luchtdruk: 979 hPa
Bewolking: Zwaar bewolkt
Zicht: 10 km
Details Bewolking: Enkele wolken 274 m
Overwegend bewolkt 305 m
Zwaar bewolkt 366 m
2019/12/12 21:25 EHQE 122125Z AUTO 13038KT 9999 FEW009 BKN010 OVC012 06/04 Q0979
 
EHKD - Marinebasis De Kooy (Den Helder)
Afstand tot weerstation: NNO 114 km
Update: 12-12-2019 22:25
Zwaar bewolkt
Zwaar bewolkt
 Wind van ZZO
Wind: ZZO 35 km/h
Temperatuur: 4°C
Gevoelstemperatuur: -2°C
Dauwpunt: 2°C
Luchtvochtigheid: 87%
Luchtdruk: 982 hPa
Bewolking: Zwaar bewolkt
Zicht: 10 km
Details Bewolking: Zwaar bewolkt 488 m
2019/12/12 21:25 EHKD 122125Z AUTO 16019KT 120V180 9999 OVC016 04/02 Q0982 REDZ WHT
EHEH - Vliegveld Eindhoven
Afstand tot weerstation: OZO 115 km
Update: 12-12-2019 22:25
Zwaar bewolkt
Zwaar bewolkt
 Wind van ZZO
Wind: ZZO 26 km/h
Temperatuur: 5°C
Gevoelstemperatuur: 1°C
Dauwpunt: 1°C
Luchtvochtigheid: 76%
Luchtdruk: 985 hPa
Bewolking: Zwaar bewolkt
Zicht: 10 km
Details Bewolking: Overwegend bewolkt 671 m
Overwegend bewolkt 792 m
Zwaar bewolkt 1372 m
2019/12/12 21:25 EHEH 122125Z AUTO 15014KT 120V180 9999 BKN022 BKN026 OVC045 05/01 Q0985 WHT 17015G25KT 9999 SCT023 OVC040
 
EHVK - Vliegveld Volkel
Afstand tot weerstation: OZO 124 km
Update: 12-12-2019 22:28
Zwaar bewolkt
Zwaar bewolkt
 Wind van ZZO
Wind: ZZO 22 km/h
Temperatuur: 4°C
Gevoelstemperatuur: -1°C
Dauwpunt: 1°C
Luchtvochtigheid: 81%
Luchtdruk: 985 hPa
Bewolking: Zwaar bewolkt
Zicht: 10 km
Details Bewolking: Zwaar bewolkt 762 m
2019/12/12 21:28 EHVK 122128Z AUTO 15012KT 110V190 9999 OVC025 04/01 Q0985 BLU
EHDL - Vliegveld Deelen
Afstand tot weerstation: O 128 km
Update: 12-12-2019 22:29
Zwaar bewolkt
Zwaar bewolkt
 Wind van ZZO
Wind: ZZO 28 km/h
Temperatuur: 4°C
Gevoelstemperatuur: -1°C
Dauwpunt: 0°C
Luchtvochtigheid: 75%
Luchtdruk: 985 hPa
Bewolking: Zwaar bewolkt
Zicht: 10 km
Details Bewolking: Zwaar bewolkt 701 m
2019/12/12 21:29 EHDL 122129Z AUTO 15015KT 090V210 9999 OVC023 04/00 Q0985 WHT